sensor_id;sensor_type;location;lat;lon;timestamp;pressure;altitude;pressure_sealevel;temperature;humidity
27358;BME280;14831;50.474;7.616;2023-02-15T00:01:58;99420;;;-0.7;100.0
27358;BME280;14831;50.474;7.616;2023-02-15T00:06:58;99400;;;-0.7;100.0
27358;BME280;14831;50.474;7.616;2023-02-15T00:11:58;99390;;;-0.7;100.0
27358;BME280;14831;50.474;7.616;2023-02-15T00:16:58;99400;;;-0.7;100.0
27358;BME280;14831;50.474;7.616;2023-02-15T00:21:58;99400;;;-0.8;100.0
27358;BME280;14831;50.474;7.616;2023-02-15T00:26:58;99400;;;-0.8;100.0
27358;BME280;14831;50.474;7.616;2023-02-15T00:31:58;99400;;;-0.8;100.0
27358;BME280;14831;50.474;7.616;2023-02-15T00:36:58;99400;;;-0.7;100.0
27358;BME280;14831;50.474;7.616;2023-02-15T00:41:58;99400;;;-0.8;100.0
27358;BME280;14831;50.474;7.616;2023-02-15T00:46:58;99410;;;-0.8;100.0
27358;BME280;14831;50.474;7.616;2023-02-15T00:51:58;99400;;;-0.8;100.0
27358;BME280;14831;50.474;7.616;2023-02-15T00:56:58;99400;;;-0.8;100.0
27358;BME280;14831;50.474;7.616;2023-02-15T01:01:58;99380;;;-0.9;100.0
27358;BME280;14831;50.474;7.616;2023-02-15T01:06:58;99360;;;-0.9;100.0
27358;BME280;14831;50.474;7.616;2023-02-15T01:11:58;99370;;;-0.9;100.0
27358;BME280;14831;50.474;7.616;2023-02-15T01:16:58;99360;;;-0.9;100.0
27358;BME280;14831;50.474;7.616;2023-02-15T01:21:58;99360;;;-0.9;100.0
27358;BME280;14831;50.474;7.616;2023-02-15T01:26:58;99360;;;-0.9;100.0
27358;BME280;14831;50.474;7.616;2023-02-15T01:31:58;99360;;;-0.9;100.0
27358;BME280;14831;50.474;7.616;2023-02-15T01:36:58;99350;;;-0.9;100.0
27358;BME280;14831;50.474;7.616;2023-02-15T01:41:58;99360;;;-0.9;100.0
27358;BME280;14831;50.474;7.616;2023-02-15T01:46:58;99360;;;-0.9;100.0
27358;BME280;14831;50.474;7.616;2023-02-15T01:51:58;99350;;;-1.0;100.0
27358;BME280;14831;50.474;7.616;2023-02-15T01:57:00;99350;;;-1.0;100.0
27358;BME280;14831;50.474;7.616;2023-02-15T02:01:58;99350;;;-1.0;100.0
27358;BME280;14831;50.474;7.616;2023-02-15T02:06:58;99350;;;-1.0;100.0
27358;BME280;14831;50.474;7.616;2023-02-15T02:11:58;99350;;;-1.1;100.0
27358;BME280;14831;50.474;7.616;2023-02-15T02:17:00;99340;;;-1.1;100.0
27358;BME280;14831;50.474;7.616;2023-02-15T02:22:03;99320;;;-1.1;100.0
27358;BME280;14831;50.474;7.616;2023-02-15T02:27:32;99320;;;-1.1;100.0
27358;BME280;14831;50.474;7.616;2023-02-15T02:32:04;99320;;;-1.1;100.0
27358;BME280;14831;50.474;7.616;2023-02-15T02:36:59;99310;;;-1.1;100.0
27358;BME280;14831;50.474;7.616;2023-02-15T02:42:00;99310;;;-1.2;100.0
27358;BME280;14831;50.474;7.616;2023-02-15T02:46:59;99300;;;-1.2;100.0
27358;BME280;14831;50.474;7.616;2023-02-15T02:51:59;99290;;;-1.2;100.0
27358;BME280;14831;50.474;7.616;2023-02-15T02:56:59;99300;;;-1.3;100.0
27358;BME280;14831;50.474;7.616;2023-02-15T03:01:59;99290;;;-1.3;100.0
27358;BME280;14831;50.474;7.616;2023-02-15T03:06:59;99290;;;-1.3;100.0
27358;BME280;14831;50.474;7.616;2023-02-15T03:11:58;99290;;;-1.4;100.0
27358;BME280;14831;50.474;7.616;2023-02-15T03:16:58;99280;;;-1.4;100.0
27358;BME280;14831;50.474;7.616;2023-02-15T03:22:00;99280;;;-1.4;100.0
27358;BME280;14831;50.474;7.616;2023-02-15T03:26:58;99280;;;-1.4;100.0
27358;BME280;14831;50.474;7.616;2023-02-15T03:31:59;99280;;;-1.4;100.0
27358;BME280;14831;50.474;7.616;2023-02-15T03:37:00;99270;;;-1.4;100.0
27358;BME280;14831;50.474;7.616;2023-02-15T03:42:03;99270;;;-1.4;100.0
27358;BME280;14831;50.474;7.616;2023-02-15T03:47:00;99260;;;-1.5;100.0
27358;BME280;14831;50.474;7.616;2023-02-15T03:51:58;99260;;;-1.5;100.0
27358;BME280;14831;50.474;7.616;2023-02-15T03:56:58;99250;;;-1.5;100.0
27358;BME280;14831;50.474;7.616;2023-02-15T04:02:01;99250;;;-1.5;100.0
27358;BME280;14831;50.474;7.616;2023-02-15T04:06:58;99260;;;-1.6;100.0
27358;BME280;14831;50.474;7.616;2023-02-15T04:11:58;99250;;;-1.6;100.0
27358;BME280;14831;50.474;7.616;2023-02-15T04:16:58;99260;;;-1.6;100.0
27358;BME280;14831;50.474;7.616;2023-02-15T04:21:58;99260;;;-1.6;100.0
27358;BME280;14831;50.474;7.616;2023-02-15T04:26:58;99250;;;-1.7;100.0
27358;BME280;14831;50.474;7.616;2023-02-15T04:31:59;99260;;;-1.7;100.0
27358;BME280;14831;50.474;7.616;2023-02-15T04:36:58;99250;;;-1.7;100.0
27358;BME280;14831;50.474;7.616;2023-02-15T04:41:58;99250;;;-1.7;100.0
27358;BME280;14831;50.474;7.616;2023-02-15T04:46:58;99250;;;-1.7;100.0
27358;BME280;14831;50.474;7.616;2023-02-15T04:51:58;99250;;;-1.7;100.0
27358;BME280;14831;50.474;7.616;2023-02-15T04:56:58;99240;;;-1.7;100.0
27358;BME280;14831;50.474;7.616;2023-02-15T05:01:59;99240;;;-1.7;100.0
27358;BME280;14831;50.474;7.616;2023-02-15T05:06:58;99240;;;-1.7;100.0
27358;BME280;14831;50.474;7.616;2023-02-15T05:11:58;99240;;;-1.7;100.0
27358;BME280;14831;50.474;7.616;2023-02-15T05:16:58;99240;;;-1.8;100.0
27358;BME280;14831;50.474;7.616;2023-02-15T05:21:58;99250;;;-1.7;100.0
27358;BME280;14831;50.474;7.616;2023-02-15T05:26:58;99240;;;-1.7;100.0
27358;BME280;14831;50.474;7.616;2023-02-15T05:31:58;99240;;;-1.7;100.0
27358;BME280;14831;50.474;7.616;2023-02-15T05:36:58;99240;;;-1.8;100.0
27358;BME280;14831;50.474;7.616;2023-02-15T05:41:58;99240;;;-1.9;100.0
27358;BME280;14831;50.474;7.616;2023-02-15T05:46:58;99230;;;-1.9;100.0
27358;BME280;14831;50.474;7.616;2023-02-15T05:51:58;99240;;;-1.8;100.0
27358;BME280;14831;50.474;7.616;2023-02-15T05:56:58;99240;;;-1.8;100.0
27358;BME280;14831;50.474;7.616;2023-02-15T06:01:58;99250;;;-1.8;100.0
27358;BME280;14831;50.474;7.616;2023-02-15T06:06:58;99240;;;-1.9;100.0
27358;BME280;14831;50.474;7.616;2023-02-15T06:11:58;99240;;;-2.0;100.0
27358;BME280;14831;50.474;7.616;2023-02-15T06:16:58;99240;;;-2.0;100.0
27358;BME280;14831;50.474;7.616;2023-02-15T06:21:58;99250;;;-1.9;100.0
27358;BME280;14831;50.474;7.616;2023-02-15T06:26:58;99250;;;-1.9;100.0
27358;BME280;14831;50.474;7.616;2023-02-15T06:31:58;99240;;;-1.9;100.0
27358;BME280;14831;50.474;7.616;2023-02-15T06:36:58;99250;;;-2.1;100.0
27358;BME280;14831;50.474;7.616;2023-02-15T06:41:58;99250;;;-2.1;100.0
27358;BME280;14831;50.474;7.616;2023-02-15T06:46:58;99260;;;-2.0;100.0
27358;BME280;14831;50.474;7.616;2023-02-15T06:51:58;99250;;;-1.9;100.0
27358;BME280;14831;50.474;7.616;2023-02-15T06:56:58;99260;;;-2.1;100.0
27358;BME280;14831;50.474;7.616;2023-02-15T07:01:58;99270;;;-2.0;100.0
27358;BME280;14831;50.474;7.616;2023-02-15T07:06:58;99260;;;-2.0;100.0
27358;BME280;14831;50.474;7.616;2023-02-15T07:11:58;99250;;;-2.0;100.0
27358;BME280;14831;50.474;7.616;2023-02-15T07:16:58;99250;;;-1.9;100.0
27358;BME280;14831;50.474;7.616;2023-02-15T07:21:58;99250;;;-1.8;100.0
27358;BME280;14831;50.474;7.616;2023-02-15T07:26:58;99250;;;-1.8;100.0
27358;BME280;14831;50.474;7.616;2023-02-15T07:31:58;99250;;;-1.7;100.0
27358;BME280;14831;50.474;7.616;2023-02-15T07:36:58;99250;;;-1.6;100.0
27358;BME280;14831;50.474;7.616;2023-02-15T07:41:59;99260;;;-1.6;100.0
27358;BME280;14831;50.474;7.616;2023-02-15T07:46:58;99270;;;-1.7;100.0
27358;BME280;14831;50.474;7.616;2023-02-15T07:52:00;99260;;;-1.6;100.0
27358;BME280;14831;50.474;7.616;2023-02-15T07:56:59;99240;;;-1.5;100.0
27358;BME280;14831;50.474;7.616;2023-02-15T08:01:58;99250;;;-1.6;100.0
27358;BME280;14831;50.474;7.616;2023-02-15T08:06:58;99240;;;-1.6;100.0
27358;BME280;14831;50.474;7.616;2023-02-15T08:11:58;99230;;;-1.5;100.0
27358;BME280;14831;50.474;7.616;2023-02-15T08:16:58;99230;;;-1.3;100.0
27358;BME280;14831;50.474;7.616;2023-02-15T08:21:59;99220;;;-1.2;100.0
27358;BME280;14831;50.474;7.616;2023-02-15T08:26:58;99220;;;-1.2;100.0
27358;BME280;14831;50.474;7.616;2023-02-15T08:31:59;99220;;;-1.2;100.0
27358;BME280;14831;50.474;7.616;2023-02-15T08:36:58;99210;;;-1.0;100.0
27358;BME280;14831;50.474;7.616;2023-02-15T08:41:58;99190;;;-0.9;100.0
27358;BME280;14831;50.474;7.616;2023-02-15T08:46:58;99190;;;-0.7;100.0
27358;BME280;14831;50.474;7.616;2023-02-15T08:51:58;99200;;;-0.6;100.0
27358;BME280;14831;50.474;7.616;2023-02-15T08:56:58;99190;;;-0.5;100.0
27358;BME280;14831;50.474;7.616;2023-02-15T09:01:58;99200;;;-0.4;100.0
27358;BME280;14831;50.474;7.616;2023-02-15T09:06:58;99200;;;-0.4;100.0
27358;BME280;14831;50.474;7.616;2023-02-15T09:11:58;99190;;;-0.2;100.0
27358;BME280;14831;50.474;7.616;2023-02-15T09:16:58;99200;;;-0.1;100.0
27358;BME280;14831;50.474;7.616;2023-02-15T09:21:58;99210;;;0.1;96.3
27358;BME280;14831;50.474;7.616;2023-02-15T09:26:58;99190;;;0.2;96.3
27358;BME280;14831;50.474;7.616;2023-02-15T09:31:58;99200;;;0.3;96.3
27358;BME280;14831;50.474;7.616;2023-02-15T09:36:58;99180;;;0.6;96.3
27358;BME280;14831;50.474;7.616;2023-02-15T09:42:03;99210;;;0.7;96.4
27358;BME280;14831;50.474;7.616;2023-02-15T09:47:03;99200;;;0.7;96.4
27358;BME280;14831;50.474;7.616;2023-02-15T09:52:02;99200;;;0.9;96.4
27358;BME280;14831;50.474;7.616;2023-02-15T09:56:59;99220;;;0.9;96.4
27358;BME280;14831;50.474;7.616;2023-02-15T10:02:01;99210;;;1.2;96.4
27358;BME280;14831;50.474;7.616;2023-02-15T10:07:00;99210;;;1.4;96.5
27358;BME280;14831;50.474;7.616;2023-02-15T10:12:05;99220;;;1.4;96.5
27358;BME280;14831;50.474;7.616;2023-02-15T10:17:01;99230;;;1.5;95.9
27358;BME280;14831;50.474;7.616;2023-02-15T10:22:00;99250;;;1.6;96.2
27358;BME280;14831;50.474;7.616;2023-02-15T10:26:59;99250;;;1.9;95.5
27358;BME280;14831;50.474;7.616;2023-02-15T10:32:00;99240;;;2.3;95.2
27358;BME280;14831;50.474;7.616;2023-02-15T10:37:05;99260;;;2.7;95.2
27358;BME280;14831;50.474;7.616;2023-02-15T10:42:01;99250;;;2.7;94.8
27358;BME280;14831;50.474;7.616;2023-02-15T10:47:03;99260;;;2.6;93.5
27358;BME280;14831;50.474;7.616;2023-02-15T10:52:02;99250;;;2.9;92.9
27358;BME280;14831;50.474;7.616;2023-02-15T10:57:01;99260;;;2.9;91.9
27358;BME280;14831;50.474;7.616;2023-02-15T11:01:59;99260;;;3.0;91.8
27358;BME280;14831;50.474;7.616;2023-02-15T11:06:59;99250;;;3.3;91.0
27358;BME280;14831;50.474;7.616;2023-02-15T11:11:58;99260;;;3.1;90.4
27358;BME280;14831;50.474;7.616;2023-02-15T11:16:59;99250;;;3.4;89.8
27358;BME280;14831;50.474;7.616;2023-02-15T11:21:59;99250;;;3.9;89.4
27358;BME280;14831;50.474;7.616;2023-02-15T11:27:00;99250;;;3.9;86.3
27358;BME280;14831;50.474;7.616;2023-02-15T11:31:59;99240;;;4.2;85.5
27358;BME280;14831;50.474;7.616;2023-02-15T11:36:59;99240;;;4.3;85.1
27358;BME280;14831;50.474;7.616;2023-02-15T11:41:59;99230;;;4.3;84.2
27358;BME280;14831;50.474;7.616;2023-02-15T11:46:58;99230;;;4.6;83.0
27358;BME280;14831;50.474;7.616;2023-02-15T11:51:59;99210;;;4.6;81.4
27358;BME280;14831;50.474;7.616;2023-02-15T11:56:59;99210;;;5.0;79.8
27358;BME280;14831;50.474;7.616;2023-02-15T12:01:58;99210;;;5.1;79.4
27358;BME280;14831;50.474;7.616;2023-02-15T12:06:59;99200;;;5.8;75.2
27358;BME280;14831;50.474;7.616;2023-02-15T12:12:19;99200;;;6.5;71.6
27358;BME280;14831;50.474;7.616;2023-02-15T12:16:58;99200;;;6.6;70.6
27358;BME280;14831;50.474;7.616;2023-02-15T12:21:59;99180;;;6.7;70.3
27358;BME280;14831;50.474;7.616;2023-02-15T12:26:59;99190;;;6.8;69.6
27358;BME280;14831;50.474;7.616;2023-02-15T12:31:59;99170;;;6.6;70.6
27358;BME280;14831;50.474;7.616;2023-02-15T12:37:00;99170;;;6.6;71.5
27358;BME280;14831;50.474;7.616;2023-02-15T12:41:59;99160;;;6.7;69.0
27358;BME280;14831;50.474;7.616;2023-02-15T12:46:59;99150;;;6.8;69.5
27358;BME280;14831;50.474;7.616;2023-02-15T12:51:59;99150;;;7.0;71.4
27358;BME280;14831;50.474;7.616;2023-02-15T12:56:59;99160;;;7.5;68.4
27358;BME280;14831;50.474;7.616;2023-02-15T13:01:58;99150;;;7.6;67.7
27358;BME280;14831;50.474;7.616;2023-02-15T13:06:59;99150;;;7.7;68.7
27358;BME280;14831;50.474;7.616;2023-02-15T13:12:08;99140;;;7.7;67.9
27358;BME280;14831;50.474;7.616;2023-02-15T13:17:00;99130;;;7.9;67.5
27358;BME280;14831;50.474;7.616;2023-02-15T13:21:58;99120;;;7.9;67.7
27358;BME280;14831;50.474;7.616;2023-02-15T13:26:58;99120;;;8.2;67.1
27358;BME280;14831;50.474;7.616;2023-02-15T13:32:00;99120;;;8.0;67.6
27358;BME280;14831;50.474;7.616;2023-02-15T13:37:00;99110;;;8.0;66.4
27358;BME280;14831;50.474;7.616;2023-02-15T13:42:00;99100;;;8.1;65.6
27358;BME280;14831;50.474;7.616;2023-02-15T13:47:02;99140;;;8.7;63.7
27358;BME280;14831;50.474;7.616;2023-02-15T13:52:00;99130;;;8.6;62.5
27358;BME280;14831;50.474;7.616;2023-02-15T13:57:00;99130;;;8.9;62.7
27358;BME280;14831;50.474;7.616;2023-02-15T14:02:03;99130;;;8.9;64.6
27358;BME280;14831;50.474;7.616;2023-02-15T14:07:02;99110;;;8.7;64.8
27358;BME280;14831;50.474;7.616;2023-02-15T14:12:02;99110;;;8.7;65.9
27358;BME280;14831;50.474;7.616;2023-02-15T14:17:00;99110;;;8.4;67.7
27358;BME280;14831;50.474;7.616;2023-02-15T14:21:59;99110;;;8.5;66.8
27358;BME280;14831;50.474;7.616;2023-02-15T14:27:01;99110;;;8.7;65.9
27358;BME280;14831;50.474;7.616;2023-02-15T14:31:59;99090;;;8.6;65.9
27358;BME280;14831;50.474;7.616;2023-02-15T14:36:58;99080;;;8.6;66.1
27358;BME280;14831;50.474;7.616;2023-02-15T14:41:59;99080;;;8.6;65.6
27358;BME280;14831;50.474;7.616;2023-02-15T14:46:59;99080;;;8.7;63.3
27358;BME280;14831;50.474;7.616;2023-02-15T14:52:00;99080;;;8.8;65.5
27358;BME280;14831;50.474;7.616;2023-02-15T14:57:20;99090;;;8.8;63.4
27358;BME280;14831;50.474;7.616;2023-02-15T15:02:00;99080;;;8.7;64.2
27358;BME280;14831;50.474;7.616;2023-02-15T15:07:01;99100;;;8.7;65.6
27358;BME280;14831;50.474;7.616;2023-02-15T15:12:12;99090;;;8.7;63.8
27358;BME280;14831;50.474;7.616;2023-02-15T15:16:58;99080;;;8.6;64.3
27358;BME280;14831;50.474;7.616;2023-02-15T15:22:02;99070;;;8.4;67.3
27358;BME280;14831;50.474;7.616;2023-02-15T15:27:36;99070;;;8.0;69.7
27358;BME280;14831;50.474;7.616;2023-02-15T15:31:58;99070;;;7.7;71.0
27358;BME280;14831;50.474;7.616;2023-02-15T15:42:01;99060;;;7.3;72.0
27358;BME280;14831;50.474;7.616;2023-02-15T15:47:05;99060;;;7.3;71.4
27358;BME280;14831;50.474;7.616;2023-02-15T15:51:59;99060;;;7.2;71.5
27358;BME280;14831;50.474;7.616;2023-02-15T15:56:59;99040;;;7.1;72.3
27358;BME280;14831;50.474;7.616;2023-02-15T16:02:03;99050;;;6.9;73.4
27358;BME280;14831;50.474;7.616;2023-02-15T16:07:05;99030;;;6.8;73.1
27358;BME280;14831;50.474;7.616;2023-02-15T16:11:58;99030;;;6.8;72.5
27358;BME280;14831;50.474;7.616;2023-02-15T16:16:59;99020;;;6.8;71.9
27358;BME280;14831;50.474;7.616;2023-02-15T16:21:59;99040;;;6.7;72.8
27358;BME280;14831;50.474;7.616;2023-02-15T16:27:03;99040;;;6.5;73.3
27358;BME280;14831;50.474;7.616;2023-02-15T16:31:59;99050;;;6.4;73.5
27358;BME280;14831;50.474;7.616;2023-02-15T16:37:14;99060;;;6.1;74.7
27358;BME280;14831;50.474;7.616;2023-02-15T16:41:59;99050;;;5.9;75.4
27358;BME280;14831;50.474;7.616;2023-02-15T16:46:58;99060;;;5.4;77.6
27358;BME280;14831;50.474;7.616;2023-02-15T16:51:59;99070;;;4.8;79.8
27358;BME280;14831;50.474;7.616;2023-02-15T16:56:58;99060;;;4.3;81.6
27358;BME280;14831;50.474;7.616;2023-02-15T17:01:58;99060;;;4.2;83.1
27358;BME280;14831;50.474;7.616;2023-02-15T17:06:59;99050;;;4.0;83.6
27358;BME280;14831;50.474;7.616;2023-02-15T17:11:58;99050;;;3.9;83.6
27358;BME280;14831;50.474;7.616;2023-02-15T17:16:59;99060;;;3.8;84.1
27358;BME280;14831;50.474;7.616;2023-02-15T17:21:59;99050;;;3.7;84.1
27358;BME280;14831;50.474;7.616;2023-02-15T17:27:00;99050;;;3.6;84.4
27358;BME280;14831;50.474;7.616;2023-02-15T17:31:58;99040;;;3.6;84.6
27358;BME280;14831;50.474;7.616;2023-02-15T17:36:58;99040;;;3.3;86.1
27358;BME280;14831;50.474;7.616;2023-02-15T17:41:58;99040;;;3.1;87.1
27358;BME280;14831;50.474;7.616;2023-02-15T17:46:58;99040;;;3.0;86.9
27358;BME280;14831;50.474;7.616;2023-02-15T17:51:58;99050;;;2.7;87.4
27358;BME280;14831;50.474;7.616;2023-02-15T17:56:58;99040;;;2.7;88.0
27358;BME280;14831;50.474;7.616;2023-02-15T18:01:58;99030;;;2.9;87.7
27358;BME280;14831;50.474;7.616;2023-02-15T18:06:59;99040;;;2.9;87.1
27358;BME280;14831;50.474;7.616;2023-02-15T18:11:58;99050;;;3.1;86.8
27358;BME280;14831;50.474;7.616;2023-02-15T18:16:58;99050;;;3.0;86.6
27358;BME280;14831;50.474;7.616;2023-02-15T18:21:58;99050;;;2.9;86.0
27358;BME280;14831;50.474;7.616;2023-02-15T18:26:58;99050;;;2.8;86.0
27358;BME280;14831;50.474;7.616;2023-02-15T18:31:58;99040;;;2.8;86.3
27358;BME280;14831;50.474;7.616;2023-02-15T18:36:58;99040;;;2.8;86.3
27358;BME280;14831;50.474;7.616;2023-02-15T18:41:58;99060;;;2.7;86.3
27358;BME280;14831;50.474;7.616;2023-02-15T18:46:58;99050;;;2.6;86.6
27358;BME280;14831;50.474;7.616;2023-02-15T18:51:58;99060;;;2.8;86.6
27358;BME280;14831;50.474;7.616;2023-02-15T18:56:59;99050;;;3.0;85.3
27358;BME280;14831;50.474;7.616;2023-02-15T19:01:58;99050;;;3.2;84.7
27358;BME280;14831;50.474;7.616;2023-02-15T19:06:58;99060;;;3.4;83.5
27358;BME280;14831;50.474;7.616;2023-02-15T19:11:58;99060;;;3.4;83.1
27358;BME280;14831;50.474;7.616;2023-02-15T19:16:58;99050;;;3.6;82.0
27358;BME280;14831;50.474;7.616;2023-02-15T19:21:58;99050;;;3.6;81.7
27358;BME280;14831;50.474;7.616;2023-02-15T19:26:58;99050;;;3.6;81.5
27358;BME280;14831;50.474;7.616;2023-02-15T19:31:58;99040;;;3.6;81.3
27358;BME280;14831;50.474;7.616;2023-02-15T19:36:58;99050;;;3.7;81.0
27358;BME280;14831;50.474;7.616;2023-02-15T19:41:58;99050;;;3.7;81.0
27358;BME280;14831;50.474;7.616;2023-02-15T19:46:58;99050;;;3.6;81.2
27358;BME280;14831;50.474;7.616;2023-02-15T19:51:58;99050;;;3.5;81.3
27358;BME280;14831;50.474;7.616;2023-02-15T19:56:58;99050;;;3.5;81.6
27358;BME280;14831;50.474;7.616;2023-02-15T20:01:58;99060;;;3.2;81.4
27358;BME280;14831;50.474;7.616;2023-02-15T20:06:59;99050;;;2.9;83.1
27358;BME280;14831;50.474;7.616;2023-02-15T20:11:58;99060;;;2.9;83.5
27358;BME280;14831;50.474;7.616;2023-02-15T20:16:58;99060;;;3.0;83.5
27358;BME280;14831;50.474;7.616;2023-02-15T20:21:58;99070;;;3.1;82.9
27358;BME280;14831;50.474;7.616;2023-02-15T20:26:58;99080;;;3.2;82.6
27358;BME280;14831;50.474;7.616;2023-02-15T20:31:58;99070;;;3.3;81.9
27358;BME280;14831;50.474;7.616;2023-02-15T20:36:58;99070;;;3.0;80.7
27358;BME280;14831;50.474;7.616;2023-02-15T20:41:58;99070;;;2.4;81.9
27358;BME280;14831;50.474;7.616;2023-02-15T20:46:58;99070;;;1.6;84.4
27358;BME280;14831;50.474;7.616;2023-02-15T20:51:58;99070;;;1.3;86.0
27358;BME280;14831;50.474;7.616;2023-02-15T20:56:58;99070;;;1.3;88.4
27358;BME280;14831;50.474;7.616;2023-02-15T21:01:59;99080;;;0.7;89.4
27358;BME280;14831;50.474;7.616;2023-02-15T21:06:58;99070;;;0.5;91.6
27358;BME280;14831;50.474;7.616;2023-02-15T21:11:58;99070;;;0.9;92.0
27358;BME280;14831;50.474;7.616;2023-02-15T21:16:58;99060;;;1.3;90.2
27358;BME280;14831;50.474;7.616;2023-02-15T21:21:58;99060;;;1.2;89.6
27358;BME280;14831;50.474;7.616;2023-02-15T21:26:59;99040;;;1.2;89.7
27358;BME280;14831;50.474;7.616;2023-02-15T21:31:58;99050;;;1.3;89.5
27358;BME280;14831;50.474;7.616;2023-02-15T21:36:58;99050;;;1.4;89.2
27358;BME280;14831;50.474;7.616;2023-02-15T21:41:58;99050;;;1.5;89.5
27358;BME280;14831;50.474;7.616;2023-02-15T21:46:58;99030;;;1.6;88.4
27358;BME280;14831;50.474;7.616;2023-02-15T21:51:58;99040;;;0.9;87.1
27358;BME280;14831;50.474;7.616;2023-02-15T21:56:58;99050;;;0.3;89.9
27358;BME280;14831;50.474;7.616;2023-02-15T22:01:58;99040;;;0.1;90.8
27358;BME280;14831;50.474;7.616;2023-02-15T22:06:58;99050;;;0.0;91.6
27358;BME280;14831;50.474;7.616;2023-02-15T22:11:58;99050;;;-0.1;95.6
27358;BME280;14831;50.474;7.616;2023-02-15T22:16:58;99050;;;-0.1;95.9
27358;BME280;14831;50.474;7.616;2023-02-15T22:21:58;99040;;;0.1;93.0
27358;BME280;14831;50.474;7.616;2023-02-15T22:26:58;99050;;;0.9;92.3
27358;BME280;14831;50.474;7.616;2023-02-15T22:31:58;99050;;;0.8;91.5
27358;BME280;14831;50.474;7.616;2023-02-15T22:36:58;99050;;;0.7;91.2
27358;BME280;14831;50.474;7.616;2023-02-15T22:41:58;99040;;;0.5;91.4
27358;BME280;14831;50.474;7.616;2023-02-15T22:46:58;99030;;;0.3;91.5
27358;BME280;14831;50.474;7.616;2023-02-15T22:51:58;99020;;;0.5;92.8
27358;BME280;14831;50.474;7.616;2023-02-15T22:56:58;99030;;;0.7;92.0
27358;BME280;14831;50.474;7.616;2023-02-15T23:01:58;99020;;;0.6;91.7
27358;BME280;14831;50.474;7.616;2023-02-15T23:06:58;99010;;;0.4;91.1
27358;BME280;14831;50.474;7.616;2023-02-15T23:11:58;99010;;;0.3;91.7
27358;BME280;14831;50.474;7.616;2023-02-15T23:16:58;99010;;;0.2;91.7
27358;BME280;14831;50.474;7.616;2023-02-15T23:21:58;99020;;;0.0;91.6
27358;BME280;14831;50.474;7.616;2023-02-15T23:26:58;99020;;;-0.2;95.3
27358;BME280;14831;50.474;7.616;2023-02-15T23:31:58;99020;;;-0.4;96.1
27358;BME280;14831;50.474;7.616;2023-02-15T23:36:58;99020;;;-0.6;96.9
27358;BME280;14831;50.474;7.616;2023-02-15T23:41:58;99020;;;-0.7;97.5
27358;BME280;14831;50.474;7.616;2023-02-15T23:46:58;99020;;;-0.6;97.9
27358;BME280;14831;50.474;7.616;2023-02-15T23:51:58;99010;;;-0.6;97.9
27358;BME280;14831;50.474;7.616;2023-02-15T23:56:59;99020;;;-0.7;98.1
